createdAt,value
2022-10-02T00:00:18.612Z,20.85
2022-10-02T00:00:41.079Z,20.87
2022-10-02T00:01:23.568Z,20.85
2022-10-02T00:01:51.369Z,20.83
2022-10-02T00:02:16.822Z,20.92
2022-10-02T00:02:43.973Z,20.91
2022-10-02T00:03:12.132Z,20.88
2022-10-02T00:03:38.422Z,20.93
2022-10-02T00:04:01.409Z,20.94
2022-10-02T00:04:29.808Z,20.88
2022-10-02T00:04:57.576Z,20.95
2022-10-02T00:05:24.177Z,20.93
2022-10-02T00:05:49.907Z,20.90
2022-10-02T00:06:18.174Z,20.86
2022-10-02T00:06:46.022Z,20.88
2022-10-02T00:07:10.987Z,20.93
2022-10-02T00:07:39.188Z,20.95
2022-10-02T00:08:04.877Z,20.97
2022-10-02T00:08:33.150Z,20.98
2022-10-02T00:08:59.551Z,21.00
2022-10-02T00:09:29.025Z,20.98
2022-10-02T00:09:55.369Z,20.98
2022-10-02T00:10:22.818Z,21.01
2022-10-02T00:10:48.457Z,21.01
2022-10-02T00:11:16.334Z,21.02
2022-10-02T00:11:44.284Z,20.99
2022-10-02T00:12:12.076Z,20.98
2022-10-02T00:12:35.946Z,20.95
2022-10-02T00:13:02.039Z,20.95
2022-10-02T00:13:26.367Z,20.98
2022-10-02T00:13:53.268Z,20.97
2022-10-02T00:14:17.898Z,20.96
2022-10-02T00:14:42.409Z,20.97
2022-10-02T00:15:13.146Z,20.98
2022-10-02T00:15:38.241Z,20.99
2022-10-02T00:16:04.980Z,20.99
2022-10-02T00:16:38.011Z,21.00
2022-10-02T00:17:02.545Z,21.01
2022-10-02T00:17:29.361Z,20.95
2022-10-02T00:17:55.324Z,20.95
2022-10-02T00:18:22.917Z,20.95
2022-10-02T00:18:47.657Z,20.92
2022-10-02T00:19:12.326Z,20.90
2022-10-02T00:19:33.913Z,20.94
2022-10-02T00:19:58.420Z,20.94
2022-10-02T00:21:15.766Z,20.94
2022-10-02T00:21:46.760Z,20.93
2022-10-02T00:22:35.609Z,20.92
2022-10-02T00:23:02.065Z,20.92
2022-10-02T00:23:31.324Z,20.93
2022-10-02T00:23:57.364Z,20.92
2022-10-02T00:24:24.944Z,20.88
2022-10-02T00:24:52.410Z,20.89
2022-10-02T00:25:23.690Z,20.90
2022-10-02T00:25:55.605Z,20.90
2022-10-02T00:26:25.272Z,20.92
2022-10-02T00:26:56.942Z,20.94
2022-10-02T00:27:41.394Z,20.95
2022-10-02T00:28:14.762Z,20.99
2022-10-02T00:28:46.418Z,21.00
2022-10-02T00:29:25.421Z,21.01
2022-10-02T00:29:49.650Z,21.03
2022-10-02T00:30:15.251Z,21.04
2022-10-02T00:30:52.097Z,21.01
2022-10-02T00:31:29.269Z,21.05
2022-10-02T00:32:00.632Z,21.01
2022-10-02T00:32:32.247Z,20.99
2022-10-02T00:33:04.443Z,20.98
2022-10-02T00:33:33.058Z,21.01
2022-10-02T00:34:12.958Z,21.04
2022-10-02T00:34:49.449Z,21.02
2022-10-02T00:35:35.273Z,21.01
2022-10-02T00:36:07.686Z,20.99
2022-10-02T00:36:44.851Z,20.99
2022-10-02T00:37:14.088Z,21.00
2022-10-02T00:37:46.706Z,20.98
2022-10-02T00:38:19.469Z,20.89
2022-10-02T00:38:55.503Z,21.01
2022-10-02T00:39:28.109Z,21.00
2022-10-02T00:40:01.857Z,21.04
2022-10-02T00:40:57.308Z,21.04
2022-10-02T00:41:47.296Z,21.09
2022-10-02T00:42:48.302Z,21.12
2022-10-02T00:43:24.371Z,21.12
2022-10-02T00:44:03.084Z,21.12
2022-10-02T00:44:43.381Z,21.09
2022-10-02T00:45:34.027Z,21.03
2022-10-02T00:46:32.083Z,21.08
2022-10-02T00:47:04.547Z,21.05
2022-10-02T00:47:38.076Z,21.05
2022-10-02T00:48:07.784Z,21.08
2022-10-02T00:48:44.449Z,21.06
2022-10-02T00:49:24.185Z,21.11
2022-10-02T00:49:58.617Z,21.03
2022-10-02T00:50:35.612Z,21.06
2022-10-02T00:51:09.313Z,21.06
2022-10-02T00:51:44.031Z,21.08
2022-10-02T00:52:22.445Z,21.11
2022-10-02T00:52:59.616Z,21.13
2022-10-02T00:53:32.746Z,21.08
2022-10-02T00:54:06.185Z,21.11
2022-10-02T00:54:51.072Z,21.10
2022-10-02T00:55:35.019Z,21.10
2022-10-02T00:56:09.968Z,21.10
2022-10-02T00:56:41.422Z,21.08
2022-10-02T00:57:11.650Z,21.09
2022-10-02T00:57:49.311Z,21.12
2022-10-02T00:58:34.238Z,21.16
2022-10-02T00:59:13.464Z,21.16
2022-10-02T00:59:55.601Z,21.18
2022-10-02T01:00:19.113Z,21.20
2022-10-02T01:00:47.787Z,21.18
2022-10-02T01:01:13.785Z,21.15
2022-10-02T01:01:42.452Z,21.20
2022-10-02T01:02:11.119Z,21.21
2022-10-02T01:03:01.643Z,21.21
2022-10-02T01:03:27.087Z,21.21
2022-10-02T01:03:54.106Z,21.20
2022-10-02T01:04:24.559Z,21.22
2022-10-02T01:04:47.980Z,21.24
2022-10-02T01:05:11.591Z,21.23
2022-10-02T01:05:34.158Z,21.26
2022-10-02T01:05:55.862Z,21.26
2022-10-02T01:06:18.478Z,21.23
2022-10-02T01:06:40.572Z,21.21
2022-10-02T01:07:04.244Z,21.18
2022-10-02T01:07:27.785Z,21.20
2022-10-02T01:07:55.387Z,21.21
2022-10-02T01:08:17.352Z,21.19
2022-10-02T01:08:39.077Z,21.20
2022-10-02T01:09:01.308Z,21.22
2022-10-02T01:09:25.279Z,21.24
2022-10-02T01:09:48.385Z,21.25
2022-10-02T01:10:11.794Z,21.17
2022-10-02T01:10:35.005Z,21.21
2022-10-02T01:10:57.855Z,21.24
2022-10-02T01:11:20.856Z,21.25
2022-10-02T01:11:44.149Z,21.27
2022-10-02T01:12:06.729Z,21.28
2022-10-02T01:12:29.673Z,21.28
2022-10-02T01:12:52.040Z,21.28
2022-10-02T01:13:13.633Z,21.29
2022-10-02T01:13:36.194Z,21.29
2022-10-02T01:13:57.887Z,21.25
2022-10-02T01:14:19.500Z,21.28
2022-10-02T01:14:41.359Z,21.27
2022-10-02T01:15:12.377Z,21.27
2022-10-02T01:15:37.515Z,21.26
2022-10-02T01:16:00.472Z,21.28
2022-10-02T01:16:22.191Z,21.28
2022-10-02T01:16:46.812Z,21.28
2022-10-02T01:17:23.047Z,21.30
2022-10-02T01:17:46.546Z,21.29
2022-10-02T01:18:12.764Z,21.26
2022-10-02T01:18:35.271Z,21.25
2022-10-02T01:18:57.260Z,21.23
2022-10-02T01:19:26.427Z,21.19
2022-10-02T01:19:49.183Z,21.20
2022-10-02T01:20:17.610Z,21.23
2022-10-02T01:20:42.525Z,21.21
2022-10-02T01:21:12.539Z,21.23
2022-10-02T01:21:43.664Z,21.24
2022-10-02T01:22:11.045Z,21.23
2022-10-02T01:22:38.600Z,21.21
2022-10-02T01:23:09.167Z,21.22
2022-10-02T01:23:39.526Z,21.23
2022-10-02T01:24:09.897Z,21.23
2022-10-02T01:24:36.877Z,21.25
2022-10-02T01:25:05.028Z,21.23
2022-10-02T01:25:26.603Z,21.21
2022-10-02T01:25:48.266Z,21.21
2022-10-02T01:26:10.940Z,21.21
2022-10-02T01:26:32.710Z,21.21
2022-10-02T01:26:54.658Z,21.22
2022-10-02T01:27:16.636Z,21.18
2022-10-02T01:27:39.524Z,21.21
2022-10-02T01:28:02.482Z,21.24
2022-10-02T01:28:25.215Z,21.23
2022-10-02T01:28:47.308Z,21.25
2022-10-02T01:29:08.940Z,21.26
2022-10-02T01:29:32.060Z,21.27
2022-10-02T01:29:57.278Z,21.29
2022-10-02T01:30:20.589Z,21.31
2022-10-02T01:30:45.972Z,21.31
2022-10-02T01:31:11.534Z,21.23
2022-10-02T01:31:35.442Z,21.30
2022-10-02T01:31:57.167Z,21.29
2022-10-02T01:32:18.869Z,21.31
2022-10-02T01:32:44.066Z,21.26
2022-10-02T01:33:06.889Z,21.30
2022-10-02T01:33:28.608Z,21.31
2022-10-02T01:33:51.375Z,21.30
2022-10-02T01:34:14.030Z,21.30
2022-10-02T01:34:36.436Z,21.31
2022-10-02T01:35:00.626Z,21.32
2022-10-02T01:35:26.540Z,21.30
2022-10-02T01:35:49.884Z,21.30
2022-10-02T01:36:13.769Z,21.31
2022-10-02T01:36:35.881Z,21.16
2022-10-02T01:36:58.106Z,21.32
2022-10-02T01:37:22.876Z,21.30
2022-10-02T01:37:45.006Z,21.29
2022-10-02T01:38:09.797Z,21.29
2022-10-02T01:38:31.716Z,21.28
2022-10-02T01:38:56.072Z,21.29
2022-10-02T01:39:17.995Z,21.30
2022-10-02T01:39:40.489Z,21.30
2022-10-02T01:40:09.177Z,21.29
2022-10-02T01:40:34.154Z,21.27
2022-10-02T01:40:55.712Z,21.28
2022-10-02T01:41:17.339Z,21.26
2022-10-02T01:41:44.333Z,21.28
2022-10-02T01:42:06.140Z,21.26
2022-10-02T01:42:27.861Z,21.29
2022-10-02T01:42:50.760Z,21.29
2022-10-02T01:43:17.005Z,21.30
2022-10-02T01:43:41.805Z,21.23
2022-10-02T01:44:04.631Z,21.31
2022-10-02T01:44:27.254Z,21.27
2022-10-02T01:44:49.920Z,21.25
2022-10-02T01:45:11.586Z,21.18
2022-10-02T01:45:57.909Z,21.22
2022-10-02T01:46:34.026Z,21.23
2022-10-02T01:47:04.436Z,21.25
2022-10-02T01:47:35.432Z,21.25
2022-10-02T01:48:08.402Z,21.29
2022-10-02T01:48:44.958Z,21.31
2022-10-02T01:49:17.296Z,21.31
2022-10-02T01:49:55.886Z,21.31
2022-10-02T01:50:27.212Z,21.31
2022-10-02T01:51:05.053Z,21.28
2022-10-02T01:51:55.056Z,21.35
2022-10-02T01:52:27.101Z,21.37
2022-10-02T01:53:00.565Z,21.37
2022-10-02T01:53:32.378Z,21.37
2022-10-02T01:54:03.580Z,21.37
2022-10-02T01:54:41.518Z,21.35
2022-10-02T01:55:17.160Z,21.33
2022-10-02T01:55:49.829Z,21.34
2022-10-02T01:56:19.270Z,21.35
2022-10-02T01:56:47.043Z,21.24
2022-10-02T01:57:18.949Z,21.27
2022-10-02T01:57:55.370Z,21.18
2022-10-02T01:58:29.552Z,21.26
2022-10-02T01:59:00.328Z,21.27
2022-10-02T01:59:32.405Z,21.27
2022-10-02T02:00:06.272Z,21.24
2022-10-02T02:00:46.580Z,21.25
2022-10-02T02:01:18.059Z,21.26
2022-10-02T02:01:47.599Z,21.27
2022-10-02T02:02:17.154Z,21.24
2022-10-02T02:02:53.633Z,21.29
2022-10-02T02:03:22.900Z,21.30
2022-10-02T02:03:54.842Z,21.30
2022-10-02T02:04:24.181Z,21.32
2022-10-02T02:04:55.531Z,21.32
2022-10-02T02:05:26.777Z,21.34
2022-10-02T02:05:53.324Z,21.32
2022-10-02T02:06:26.416Z,21.32
2022-10-02T02:06:55.954Z,21.35
2022-10-02T02:07:25.966Z,21.36
2022-10-02T02:07:53.224Z,21.35
2022-10-02T02:08:23.483Z,21.36
2022-10-02T02:08:56.446Z,21.34
2022-10-02T02:09:25.460Z,21.31
2022-10-02T02:09:55.233Z,21.30
2022-10-02T02:10:25.851Z,21.24
2022-10-02T02:10:55.888Z,21.25
2022-10-02T02:11:20.097Z,21.27
2022-10-02T02:11:48.868Z,21.28
2022-10-02T02:12:16.089Z,21.30
2022-10-02T02:12:43.102Z,21.19
2022-10-02T02:13:14.169Z,21.25
2022-10-02T02:13:45.149Z,21.27
2022-10-02T02:14:15.236Z,21.24
2022-10-02T02:14:42.757Z,21.29
2022-10-02T02:15:09.144Z,21.33
2022-10-02T02:15:40.178Z,21.28
2022-10-02T02:16:07.979Z,21.33
2022-10-02T02:16:35.997Z,21.29
2022-10-02T02:17:05.441Z,21.39
2022-10-02T02:17:34.043Z,21.38
2022-10-02T02:17:59.218Z,21.37
2022-10-02T02:18:27.714Z,21.40
2022-10-02T02:18:54.453Z,21.40
2022-10-02T02:19:20.204Z,21.39
2022-10-02T02:19:47.789Z,21.32
2022-10-02T02:20:16.311Z,21.38
2022-10-02T02:20:46.321Z,21.39
2022-10-02T02:21:14.630Z,21.41
2022-10-02T02:21:41.157Z,21.39
2022-10-02T02:22:08.381Z,21.40
2022-10-02T02:22:34.126Z,21.40
2022-10-02T02:23:03.803Z,21.43
2022-10-02T02:23:30.698Z,21.46
2022-10-02T02:23:56.061Z,21.47
2022-10-02T02:24:22.717Z,21.47
2022-10-02T02:24:52.281Z,21.48
2022-10-02T02:25:18.322Z,21.49
2022-10-02T02:25:45.214Z,21.49
2022-10-02T02:26:12.207Z,21.48
2022-10-02T02:26:36.132Z,21.47
2022-10-02T02:27:01.460Z,21.45
2022-10-02T02:27:26.781Z,21.43
2022-10-02T02:27:53.135Z,21.47
2022-10-02T02:28:20.251Z,21.47
2022-10-02T02:28:48.756Z,21.43
2022-10-02T02:29:12.035Z,21.46
2022-10-02T02:29:37.286Z,21.46
2022-10-02T02:30:05.480Z,21.47
2022-10-02T02:30:31.572Z,21.45
2022-10-02T02:30:55.753Z,21.48
2022-10-02T02:31:22.447Z,21.46
2022-10-02T02:31:51.095Z,21.48
2022-10-02T02:32:18.064Z,21.46
2022-10-02T02:32:50.140Z,21.47
2022-10-02T02:33:17.171Z,21.47
2022-10-02T02:33:41.870Z,21.49
2022-10-02T02:34:08.380Z,21.50
2022-10-02T02:34:35.162Z,21.46
2022-10-02T02:35:04.386Z,21.43
2022-10-02T02:35:32.943Z,21.49
2022-10-02T02:35:58.470Z,21.48
2022-10-02T02:36:25.867Z,21.49
2022-10-02T02:36:52.360Z,21.50
2022-10-02T02:37:19.133Z,21.51
2022-10-02T02:37:45.094Z,21.51
2022-10-02T02:38:13.478Z,21.49
2022-10-02T02:38:38.859Z,21.51
2022-10-02T02:39:05.867Z,21.49
2022-10-02T02:39:33.971Z,21.49
2022-10-02T02:39:58.111Z,21.50
2022-10-02T02:40:24.440Z,21.51
2022-10-02T02:40:48.015Z,21.50
2022-10-02T02:41:14.951Z,21.43
2022-10-02T02:41:41.829Z,21.40
2022-10-02T02:42:08.642Z,21.45
2022-10-02T02:42:33.039Z,21.45
2022-10-02T02:43:00.789Z,21.47
2022-10-02T02:43:28.760Z,21.46
2022-10-02T02:43:55.039Z,21.46
2022-10-02T02:44:22.068Z,21.44
2022-10-02T02:44:49.895Z,21.42
2022-10-02T02:45:16.140Z,21.42
2022-10-02T02:45:40.479Z,21.43
2022-10-02T02:46:07.688Z,21.45
2022-10-02T02:46:35.544Z,21.47
2022-10-02T02:47:04.078Z,21.44
2022-10-02T02:47:29.085Z,21.46
2022-10-02T02:47:53.368Z,21.48
2022-10-02T02:48:22.719Z,21.47
2022-10-02T02:48:49.776Z,21.50
2022-10-02T02:49:12.932Z,21.48
2022-10-02T02:49:46.376Z,21.50
2022-10-02T02:50:15.634Z,21.50
2022-10-02T02:50:43.644Z,21.51
2022-10-02T02:51:10.096Z,21.52
2022-10-02T02:51:37.405Z,21.52
2022-10-02T02:52:03.801Z,21.47
2022-10-02T02:52:30.018Z,21.46
2022-10-02T02:52:55.932Z,21.42
2022-10-02T02:53:21.432Z,21.43
2022-10-02T02:53:49.226Z,21.40
2022-10-02T02:54:15.286Z,21.40
2022-10-02T02:54:40.211Z,21.41
2022-10-02T02:55:09.460Z,21.44
2022-10-02T02:55:33.844Z,21.44
2022-10-02T02:56:00.363Z,21.45
2022-10-02T02:56:22.582Z,21.48
2022-10-02T02:56:48.093Z,21.47
2022-10-02T02:57:13.587Z,21.51
2022-10-02T02:57:40.923Z,21.52
2022-10-02T02:58:08.360Z,21.53
2022-10-02T02:58:35.397Z,21.56
2022-10-02T02:59:00.267Z,21.56
2022-10-02T02:59:23.643Z,21.58
2022-10-02T02:59:50.572Z,21.54
2022-10-02T03:00:14.212Z,21.53
2022-10-02T03:00:35.833Z,21.54
2022-10-02T03:00:58.885Z,21.52
2022-10-02T03:01:23.503Z,21.52
2022-10-02T03:01:45.515Z,21.51
2022-10-02T03:02:08.727Z,21.52
2022-10-02T03:02:30.566Z,21.52
2022-10-02T03:02:55.592Z,21.51
2022-10-02T03:03:17.240Z,21.52
2022-10-02T03:03:40.750Z,21.48
2022-10-02T03:04:02.639Z,21.43
2022-10-02T03:04:24.293Z,21.49
2022-10-02T03:04:48.199Z,21.48
2022-10-02T03:05:13.758Z,21.45
2022-10-02T03:05:39.098Z,21.47
2022-10-02T03:06:06.242Z,21.49
2022-10-02T03:06:33.532Z,21.49
2022-10-02T03:07:03.520Z,21.48
2022-10-02T03:07:25.224Z,21.46
2022-10-02T03:07:53.729Z,21.46
2022-10-02T03:08:20.206Z,21.49
2022-10-02T03:08:42.951Z,21.49
2022-10-02T03:09:06.952Z,21.51
2022-10-02T03:09:32.293Z,21.51
2022-10-02T03:10:03.020Z,21.52
2022-10-02T03:10:40.186Z,21.52
2022-10-02T03:11:14.000Z,21.53
2022-10-02T03:11:48.822Z,21.53
2022-10-02T03:12:21.661Z,21.55
2022-10-02T03:12:54.940Z,21.58
2022-10-02T03:13:31.197Z,21.58
2022-10-02T03:14:02.076Z,21.56
2022-10-02T03:14:58.379Z,21.62
2022-10-02T03:15:29.625Z,21.63
2022-10-02T03:16:04.766Z,21.66
2022-10-02T03:16:39.516Z,21.64
2022-10-02T03:17:08.625Z,21.67
2022-10-02T03:17:50.929Z,21.60
2022-10-02T03:18:23.185Z,21.61
2022-10-02T03:18:58.066Z,21.66
2022-10-02T03:19:30.349Z,21.65
2022-10-02T03:20:00.630Z,21.65
2022-10-02T03:20:31.960Z,21.60
2022-10-02T03:21:07.326Z,21.60
2022-10-02T03:21:35.495Z,21.61
2022-10-02T03:22:05.059Z,21.60
2022-10-02T03:22:36.640Z,21.60
2022-10-02T03:23:07.164Z,21.61
2022-10-02T03:23:34.570Z,21.61
2022-10-02T03:24:05.694Z,21.59
2022-10-02T03:24:33.336Z,21.60
2022-10-02T03:25:01.345Z,21.62
2022-10-02T03:25:31.700Z,21.59
2022-10-02T03:26:00.592Z,21.55
2022-10-02T03:26:32.231Z,21.59
2022-10-02T03:27:01.920Z,21.57
2022-10-02T03:27:34.644Z,21.59
2022-10-02T03:28:03.466Z,21.56
2022-10-02T03:28:54.252Z,21.53
2022-10-02T03:29:20.257Z,21.56
2022-10-02T03:29:49.236Z,21.59
2022-10-02T03:30:12.793Z,21.61
2022-10-02T03:30:36.565Z,21.59
2022-10-02T03:31:01.435Z,21.64
2022-10-02T03:31:26.666Z,21.59
2022-10-02T03:31:49.752Z,21.56
2022-10-02T03:32:14.693Z,21.62
2022-10-02T03:32:39.851Z,21.59
2022-10-02T03:33:03.363Z,21.54
2022-10-02T03:33:29.504Z,21.57
2022-10-02T03:33:53.948Z,21.54
2022-10-02T03:34:17.984Z,21.58
2022-10-02T03:34:40.244Z,21.58
2022-10-02T03:35:05.233Z,21.58
2022-10-02T03:35:28.088Z,21.59
2022-10-02T03:35:51.547Z,21.61
2022-10-02T03:36:17.753Z,21.61
2022-10-02T03:36:40.995Z,21.57
2022-10-02T03:37:03.653Z,21.65
2022-10-02T03:37:25.852Z,21.63
2022-10-02T03:37:52.518Z,21.60
2022-10-02T03:38:14.835Z,21.59
2022-10-02T03:38:38.603Z,21.66
2022-10-02T03:39:45.860Z,21.63
2022-10-02T03:40:08.265Z,21.56
2022-10-02T03:40:30.069Z,21.53
2022-10-02T03:40:57.944Z,21.47
2022-10-02T03:41:19.543Z,21.49
2022-10-02T03:41:42.722Z,21.48
2022-10-02T03:42:07.447Z,21.34
2022-10-02T03:42:32.951Z,21.37
2022-10-02T03:42:58.189Z,21.36
2022-10-02T03:43:24.524Z,21.40
2022-10-02T03:43:46.148Z,21.45
2022-10-02T03:44:07.741Z,21.44
2022-10-02T03:44:29.350Z,21.47
2022-10-02T03:44:52.097Z,21.51
2022-10-02T03:45:32.709Z,21.54
2022-10-02T03:45:56.863Z,21.60
2022-10-02T03:46:19.736Z,21.58
2022-10-02T03:46:41.433Z,21.57
2022-10-02T03:47:03.112Z,21.57
2022-10-02T03:47:24.699Z,21.50
2022-10-02T03:47:48.459Z,21.49
2022-10-02T03:48:10.078Z,21.46
2022-10-02T03:48:31.933Z,21.46
2022-10-02T03:48:56.342Z,21.50
2022-10-02T03:49:20.183Z,21.53
2022-10-02T03:49:41.801Z,21.53
2022-10-02T03:50:04.965Z,21.57
2022-10-02T03:50:26.503Z,21.52
2022-10-02T03:50:50.645Z,21.53
2022-10-02T03:51:12.230Z,21.51
2022-10-02T03:51:33.811Z,21.54
2022-10-02T03:51:56.333Z,21.50
2022-10-02T03:52:21.134Z,21.47
2022-10-02T03:52:42.985Z,21.40
2022-10-02T03:53:11.100Z,21.40
2022-10-02T03:53:35.291Z,21.45
2022-10-02T03:53:58.530Z,21.35
2022-10-02T03:54:21.685Z,21.47
2022-10-02T03:54:45.192Z,21.50
2022-10-02T03:55:20.665Z,21.53
2022-10-02T03:55:46.717Z,21.49
2022-10-02T03:56:12.456Z,21.50
2022-10-02T03:56:40.534Z,21.52
2022-10-02T03:57:06.357Z,21.58
2022-10-02T03:57:30.209Z,21.57
2022-10-02T03:57:53.957Z,21.54
2022-10-02T03:58:18.512Z,21.53
2022-10-02T03:58:45.833Z,21.59
2022-10-02T03:59:16.840Z,21.61
2022-10-02T03:59:46.645Z,21.54
2022-10-02T04:00:14.124Z,21.56
2022-10-02T04:00:39.432Z,21.51
2022-10-02T04:01:05.705Z,21.58
2022-10-02T04:01:32.443Z,21.51
2022-10-02T04:01:58.152Z,21.51
2022-10-02T04:02:28.086Z,21.40
2022-10-02T04:02:54.098Z,21.50
2022-10-02T04:03:20.392Z,21.49
2022-10-02T04:03:50.191Z,21.45
2022-10-02T04:04:17.679Z,21.50
2022-10-02T04:04:45.408Z,21.50
2022-10-02T04:05:18.790Z,21.48
2022-10-02T04:05:43.070Z,21.49
2022-10-02T04:06:09.787Z,21.50
2022-10-02T04:06:44.271Z,21.48
2022-10-02T04:07:13.200Z,21.45
2022-10-02T04:07:40.269Z,21.53
2022-10-02T04:08:08.641Z,21.43
2022-10-02T04:08:36.522Z,21.54
2022-10-02T04:09:03.222Z,21.58
2022-10-02T04:09:29.857Z,21.60
2022-10-02T04:10:02.554Z,21.62
2022-10-02T04:10:36.865Z,21.62
2022-10-02T04:11:05.288Z,21.64
2022-10-02T04:11:34.519Z,21.66
2022-10-02T04:12:02.289Z,21.67
2022-10-02T04:12:28.856Z,21.66
2022-10-02T04:12:54.399Z,21.66
2022-10-02T04:13:22.637Z,21.65
2022-10-02T04:13:48.539Z,21.64
2022-10-02T04:14:16.505Z,21.63
2022-10-02T04:14:44.818Z,21.67
2022-10-02T04:15:16.526Z,21.67
2022-10-02T04:15:53.115Z,21.63
2022-10-02T04:16:20.289Z,21.66
2022-10-02T04:16:48.256Z,21.67
2022-10-02T04:17:16.787Z,21.72
2022-10-02T04:17:44.107Z,21.72
2022-10-02T04:18:10.321Z,21.71
2022-10-02T04:18:38.884Z,21.68
2022-10-02T04:19:04.041Z,21.64
2022-10-02T04:19:30.106Z,21.62
2022-10-02T04:19:56.761Z,21.63
2022-10-02T04:20:25.544Z,21.67
2022-10-02T04:20:53.621Z,21.67
2022-10-02T04:21:34.297Z,21.69
2022-10-02T04:22:02.520Z,21.70
2022-10-02T04:22:34.454Z,21.58
2022-10-02T04:23:04.290Z,21.59
2022-10-02T04:23:30.948Z,21.59
2022-10-02T04:23:59.575Z,21.59
2022-10-02T04:24:29.598Z,21.59
2022-10-02T04:24:59.108Z,21.60
2022-10-02T04:25:22.955Z,21.63
2022-10-02T04:25:51.847Z,21.62
2022-10-02T04:26:17.841Z,21.61
2022-10-02T04:26:45.380Z,21.64
2022-10-02T04:27:14.252Z,21.66
2022-10-02T04:27:41.003Z,21.65
2022-10-02T04:28:09.194Z,21.64
2022-10-02T04:28:42.830Z,21.65
2022-10-02T04:29:13.976Z,21.70
2022-10-02T04:29:39.836Z,21.71
2022-10-02T04:30:05.967Z,21.71
2022-10-02T04:30:30.108Z,21.74
2022-10-02T04:30:53.043Z,21.73
2022-10-02T04:31:14.770Z,21.73
2022-10-02T04:31:36.489Z,21.74
2022-10-02T04:32:06.568Z,21.73
2022-10-02T04:32:31.020Z,21.71
2022-10-02T04:32:53.859Z,21.75
2022-10-02T04:33:18.563Z,21.75
2022-10-02T04:33:41.619Z,21.65
2022-10-02T04:34:05.318Z,21.70
2022-10-02T04:34:30.471Z,21.68
2022-10-02T04:34:53.020Z,21.71
2022-10-02T04:35:18.247Z,21.70
2022-10-02T04:35:48.331Z,21.67
2022-10-02T04:36:24.759Z,21.62
2022-10-02T04:37:09.194Z,21.62
2022-10-02T04:37:45.108Z,21.63
2022-10-02T04:38:42.135Z,21.67
2022-10-02T04:39:20.391Z,21.67
2022-10-02T04:40:08.409Z,21.61
2022-10-02T04:40:43.441Z,21.53
2022-10-02T04:41:20.609Z,21.59
2022-10-02T04:41:57.341Z,21.62
2022-10-02T04:42:28.848Z,21.60
2022-10-02T04:43:07.734Z,21.63
2022-10-02T04:43:45.696Z,21.58
2022-10-02T04:44:19.599Z,21.60
2022-10-02T04:44:53.212Z,21.59
2022-10-02T04:45:29.662Z,21.59
2022-10-02T04:46:03.277Z,21.59
2022-10-02T04:46:45.110Z,21.57
2022-10-02T04:47:23.558Z,21.59
2022-10-02T04:48:07.591Z,21.64
2022-10-02T04:48:48.372Z,21.65
2022-10-02T04:49:29.693Z,21.56
2022-10-02T04:50:06.104Z,21.54
2022-10-02T04:50:51.657Z,21.53
2022-10-02T04:51:26.519Z,21.51
2022-10-02T04:52:05.046Z,21.51
2022-10-02T04:53:02.769Z,21.53
2022-10-02T04:53:43.336Z,21.52
2022-10-02T04:54:28.829Z,21.56
2022-10-02T04:55:11.981Z,21.49
2022-10-02T04:55:58.244Z,21.51
2022-10-02T04:56:39.138Z,21.51
2022-10-02T04:57:17.749Z,21.53
2022-10-02T04:57:59.613Z,21.32
2022-10-02T04:58:30.778Z,21.40
2022-10-02T04:59:14.209Z,21.44
2022-10-02T04:59:48.552Z,21.49
2022-10-02T05:00:14.026Z,21.53
2022-10-02T05:00:45.511Z,21.54
2022-10-02T05:01:21.401Z,21.51
2022-10-02T05:02:01.966Z,21.50
2022-10-02T05:02:36.712Z,21.43
2022-10-02T05:03:17.773Z,21.45
2022-10-02T05:04:05.621Z,21.44
2022-10-02T05:04:54.284Z,21.43
2022-10-02T05:05:28.201Z,21.38
2022-10-02T05:06:06.107Z,21.36
2022-10-02T05:06:46.330Z,21.38
2022-10-02T05:07:29.905Z,21.36
2022-10-02T05:08:06.976Z,21.47
2022-10-02T05:08:45.400Z,21.40
2022-10-02T05:09:16.134Z,21.47
2022-10-02T05:09:51.199Z,21.54
2022-10-02T05:10:33.631Z,21.51
2022-10-02T05:11:16.525Z,21.50
2022-10-02T05:12:01.626Z,21.50
2022-10-02T05:12:50.164Z,21.48
2022-10-02T05:13:33.838Z,21.46
2022-10-02T05:14:23.621Z,21.45
2022-10-02T05:15:04.418Z,21.42
2022-10-02T05:15:45.037Z,21.43
2022-10-02T05:16:15.933Z,21.44
2022-10-02T05:16:58.733Z,21.48
2022-10-02T05:17:42.036Z,21.50
2022-10-02T05:18:20.137Z,21.43
2022-10-02T05:19:05.221Z,21.47
2022-10-02T05:19:46.422Z,21.47
2022-10-02T05:20:25.910Z,21.47
2022-10-02T05:21:11.346Z,21.52
2022-10-02T05:21:50.128Z,21.52
2022-10-02T05:22:35.561Z,21.51
2022-10-02T05:23:32.691Z,21.52
2022-10-02T05:24:06.929Z,21.52
2022-10-02T05:24:51.583Z,21.56
2022-10-02T05:25:37.945Z,21.58
2022-10-02T05:26:15.899Z,21.57
2022-10-02T05:27:04.091Z,21.54
2022-10-02T05:27:50.012Z,21.58
2022-10-02T05:28:33.641Z,21.62
2022-10-02T05:29:08.859Z,21.62
2022-10-02T05:29:46.029Z,21.64
2022-10-02T05:30:11.991Z,21.65
2022-10-02T05:30:44.420Z,21.66
2022-10-02T05:31:17.937Z,21.66
2022-10-02T05:32:01.641Z,21.67
2022-10-02T05:32:42.789Z,21.69
2022-10-02T05:33:24.614Z,21.69
2022-10-02T05:33:54.901Z,21.71
2022-10-02T05:34:38.115Z,21.67
2022-10-02T05:35:16.993Z,21.65
2022-10-02T05:35:55.824Z,21.69
2022-10-02T05:36:49.585Z,21.65
2022-10-02T05:37:27.681Z,21.68
2022-10-02T05:38:05.292Z,21.69
2022-10-02T05:38:47.870Z,21.65
2022-10-02T05:39:16.557Z,21.65
2022-10-02T05:39:46.529Z,21.68
2022-10-02T05:40:17.362Z,21.70
2022-10-02T05:40:47.270Z,21.68
2022-10-02T05:41:15.640Z,21.69
2022-10-02T05:41:45.941Z,21.71
2022-10-02T05:42:19.381Z,21.65
2022-10-02T05:42:50.976Z,21.71
2022-10-02T05:43:21.704Z,21.66
2022-10-02T05:43:49.734Z,21.69
2022-10-02T05:44:16.598Z,21.64
2022-10-02T05:44:41.736Z,21.67
2022-10-02T05:45:12.483Z,21.66
2022-10-02T05:45:39.337Z,21.67
2022-10-02T05:46:09.181Z,21.59
2022-10-02T05:46:33.089Z,21.63
2022-10-02T05:47:02.099Z,21.66
2022-10-02T05:47:28.938Z,21.67
2022-10-02T05:47:54.893Z,21.69
2022-10-02T05:48:20.468Z,21.68
2022-10-02T05:48:46.136Z,21.68
2022-10-02T05:49:15.698Z,21.72
2022-10-02T05:49:41.710Z,21.74
2022-10-02T05:50:14.346Z,21.75
2022-10-02T05:50:38.043Z,21.75
2022-10-02T05:51:07.988Z,21.77
2022-10-02T05:51:37.618Z,21.78
2022-10-02T05:52:02.401Z,21.73
2022-10-02T05:52:32.686Z,21.72
2022-10-02T05:52:58.115Z,21.70
2022-10-02T05:53:32.220Z,21.72
2022-10-02T05:54:01.118Z,21.72
2022-10-02T05:54:33.459Z,21.73
2022-10-02T05:55:00.122Z,21.71
2022-10-02T05:55:27.023Z,21.70
2022-10-02T05:55:54.481Z,21.63
2022-10-02T05:56:22.597Z,21.73
2022-10-02T05:56:51.733Z,21.71
2022-10-02T05:57:21.524Z,21.78
2022-10-02T05:57:50.527Z,21.74
2022-10-02T05:58:19.355Z,21.75
2022-10-02T05:58:50.749Z,21.76
2022-10-02T05:59:18.470Z,21.77
2022-10-02T05:59:48.457Z,21.78
2022-10-02T06:00:21.938Z,21.72
2022-10-02T06:00:52.700Z,21.73
2022-10-02T06:01:22.765Z,21.75
2022-10-02T06:01:47.165Z,21.77
2022-10-02T06:02:20.429Z,21.78
2022-10-02T06:02:48.733Z,21.79
2022-10-02T06:03:17.884Z,21.78
2022-10-02T06:03:43.681Z,21.77
2022-10-02T06:04:14.652Z,21.77
2022-10-02T06:04:41.005Z,21.77
2022-10-02T06:05:13.665Z,21.76
2022-10-02T06:05:47.446Z,21.70
2022-10-02T06:06:15.860Z,21.76
2022-10-02T06:06:42.674Z,21.73
2022-10-02T06:07:09.439Z,21.77
2022-10-02T06:07:32.007Z,21.75
2022-10-02T06:07:58.464Z,21.80
2022-10-02T06:08:25.485Z,21.82
2022-10-02T06:08:54.381Z,21.80
2022-10-02T06:09:20.321Z,21.84
2022-10-02T06:09:47.140Z,21.85
2022-10-02T06:10:13.110Z,21.83
2022-10-02T06:10:44.889Z,21.84
2022-10-02T06:11:11.711Z,21.82
2022-10-02T06:11:39.345Z,21.79
2022-10-02T06:12:05.668Z,21.78
2022-10-02T06:12:33.655Z,21.78
2022-10-02T06:12:59.638Z,21.80
2022-10-02T06:13:27.452Z,21.81
2022-10-02T06:13:55.728Z,21.78
2022-10-02T06:14:26.804Z,21.78
2022-10-02T06:14:56.894Z,21.77
2022-10-02T06:15:24.343Z,21.66
2022-10-02T06:15:52.440Z,21.72
2022-10-02T06:16:22.539Z,21.71
2022-10-02T06:16:51.018Z,21.73
2022-10-02T06:17:19.137Z,21.75
2022-10-02T06:17:47.235Z,21.75
2022-10-02T06:18:15.802Z,21.75
2022-10-02T06:18:44.881Z,21.77
2022-10-02T06:19:13.885Z,21.68
2022-10-02T06:19:42.047Z,21.74
2022-10-02T06:20:16.376Z,21.73
2022-10-02T06:20:42.848Z,21.74
2022-10-02T06:21:10.093Z,21.76
2022-10-02T06:21:39.269Z,21.75
2022-10-02T06:22:06.480Z,21.72